createdAt,value
2022-10-18T00:00:38.960Z,12.59
2022-10-18T00:01:40.749Z,12.59
2022-10-18T00:02:42.689Z,12.57
2022-10-18T00:03:44.477Z,12.55
2022-10-18T00:04:46.904Z,12.51
2022-10-18T00:05:49.445Z,12.51
2022-10-18T00:06:51.272Z,12.51
2022-10-18T00:07:53.159Z,12.48
2022-10-18T00:08:55.019Z,12.47
2022-10-18T00:09:56.799Z,12.46
2022-10-18T00:10:58.596Z,12.44
2022-10-18T00:12:00.989Z,12.42
2022-10-18T00:13:02.795Z,12.43
2022-10-18T00:14:04.932Z,12.44
2022-10-18T00:15:07.694Z,12.43
2022-10-18T00:16:14.267Z,12.39
2022-10-18T00:17:16.105Z,12.39
2022-10-18T00:18:18.352Z,12.37
2022-10-18T00:19:20.130Z,12.39
2022-10-18T00:20:21.947Z,12.39
2022-10-18T00:21:24.564Z,12.39
2022-10-18T00:22:26.406Z,12.40
2022-10-18T00:23:28.905Z,12.40
2022-10-18T00:24:30.677Z,12.43
2022-10-18T00:25:32.437Z,12.43
2022-10-18T00:26:34.198Z,12.43
2022-10-18T00:27:36.198Z,12.42
2022-10-18T00:28:39.515Z,12.41
2022-10-18T00:29:41.309Z,12.41
2022-10-18T00:30:43.157Z,12.39
2022-10-18T00:31:45.472Z,12.33
2022-10-18T00:32:47.322Z,12.30
2022-10-18T00:33:53.530Z,12.29
2022-10-18T00:34:55.325Z,12.28
2022-10-18T00:36:00.401Z,12.26
2022-10-18T00:37:02.196Z,12.26
2022-10-18T00:38:04.028Z,12.27
2022-10-18T00:39:07.248Z,12.26
2022-10-18T00:40:09.293Z,12.19
2022-10-18T00:41:12.298Z,12.17
2022-10-18T00:42:17.096Z,12.15
2022-10-18T00:43:19.039Z,12.10
2022-10-18T00:44:26.637Z,12.09
2022-10-18T00:45:28.491Z,12.12
2022-10-18T00:46:31.885Z,12.12
2022-10-18T00:47:35.050Z,12.11
2022-10-18T00:48:36.804Z,12.12
2022-10-18T00:49:44.162Z,12.14
2022-10-18T00:50:47.383Z,12.17
2022-10-18T00:51:56.918Z,12.16
2022-10-18T00:53:01.824Z,12.16
2022-10-18T00:54:03.849Z,12.15
2022-10-18T00:55:06.738Z,12.12
2022-10-18T00:56:08.574Z,12.12
2022-10-18T00:57:10.763Z,12.12
2022-10-18T00:58:14.118Z,12.14
2022-10-18T00:59:17.622Z,12.14
2022-10-18T01:00:19.878Z,12.15
2022-10-18T01:01:24.462Z,12.13
2022-10-18T01:02:29.685Z,12.11
2022-10-18T01:03:32.003Z,12.10
2022-10-18T01:04:33.912Z,12.09
2022-10-18T01:05:41.910Z,12.05
2022-10-18T01:08:21.094Z,12.01
2022-10-18T01:09:48.905Z,12.03
2022-10-18T01:11:14.015Z,12.03
2022-10-18T01:12:38.890Z,12.06
2022-10-18T01:13:48.280Z,12.06
2022-10-18T01:15:02.195Z,12.07
2022-10-18T01:16:11.078Z,12.09
2022-10-18T01:17:20.135Z,12.10
2022-10-18T01:18:21.838Z,12.11
2022-10-18T01:19:23.537Z,12.09
2022-10-18T01:20:34.718Z,12.07
2022-10-18T01:21:43.112Z,12.06
2022-10-18T01:23:00.619Z,12.05
2022-10-18T01:24:14.537Z,12.05
2022-10-18T01:25:39.824Z,12.05
2022-10-18T01:27:00.051Z,12.02
2022-10-18T01:28:19.944Z,12.01
2022-10-18T01:29:40.233Z,11.99
2022-10-18T01:31:00.564Z,11.96
2022-10-18T01:32:07.997Z,11.92
2022-10-18T01:33:09.781Z,11.91
2022-10-18T01:34:13.263Z,11.94
2022-10-18T01:35:18.319Z,11.92
2022-10-18T01:36:26.329Z,11.89
2022-10-18T01:37:29.646Z,11.88
2022-10-18T01:38:33.072Z,11.88
2022-10-18T01:39:37.172Z,11.88
2022-10-18T01:40:41.397Z,11.85
2022-10-18T01:41:44.832Z,11.85
2022-10-18T01:42:47.848Z,11.87
2022-10-18T01:43:52.243Z,11.86
2022-10-18T01:44:55.155Z,11.84
2022-10-18T01:45:58.410Z,11.81
2022-10-18T01:47:00.856Z,11.82
2022-10-18T01:48:03.385Z,11.85
2022-10-18T01:49:05.390Z,11.86
2022-10-18T01:50:07.453Z,11.87
2022-10-18T01:51:09.293Z,11.89
2022-10-18T01:52:15.128Z,11.87
2022-10-18T01:53:24.452Z,11.87
2022-10-18T01:54:37.830Z,11.87
2022-10-18T01:55:39.512Z,11.88
2022-10-18T01:56:47.373Z,11.88
2022-10-18T01:58:09.378Z,11.86
2022-10-18T01:59:43.740Z,11.85
2022-10-18T02:00:48.282Z,11.85
2022-10-18T02:01:55.923Z,11.85
2022-10-18T02:03:04.681Z,11.84
2022-10-18T02:04:24.875Z,11.82
2022-10-18T02:05:29.424Z,11.84
2022-10-18T02:06:35.666Z,11.82
2022-10-18T02:07:40.821Z,11.79
2022-10-18T02:08:45.619Z,11.78
2022-10-18T02:09:52.189Z,11.76
2022-10-18T02:11:02.918Z,11.72
2022-10-18T02:12:05.516Z,11.72
2022-10-18T02:13:07.783Z,11.72
2022-10-18T02:14:12.033Z,11.70
2022-10-18T02:15:16.411Z,11.70
2022-10-18T02:16:27.049Z,11.69
2022-10-18T02:17:30.243Z,11.68
2022-10-18T02:18:39.477Z,11.69
2022-10-18T02:19:43.795Z,11.68
2022-10-18T02:20:45.853Z,11.69
2022-10-18T02:21:48.716Z,11.69
2022-10-18T02:22:51.703Z,11.70
2022-10-18T02:23:54.150Z,11.67
2022-10-18T02:24:57.857Z,11.64
2022-10-18T02:25:59.628Z,11.65
2022-10-18T02:27:01.938Z,11.63
2022-10-18T02:28:04.656Z,11.61
2022-10-18T02:29:06.703Z,11.60
2022-10-18T02:30:09.753Z,11.59
2022-10-18T02:31:20.391Z,11.60
2022-10-18T02:32:22.183Z,11.60
2022-10-18T02:33:38.192Z,11.63
2022-10-18T02:34:42.937Z,11.63
2022-10-18T02:35:50.039Z,11.63
2022-10-18T02:36:53.848Z,11.64
2022-10-18T02:37:57.331Z,11.65
2022-10-18T02:39:03.397Z,11.65
2022-10-18T02:40:06.259Z,11.64
2022-10-18T02:41:08.285Z,11.64
2022-10-18T02:42:10.803Z,11.61
2022-10-18T02:43:14.361Z,11.59
2022-10-18T02:44:16.269Z,11.58
2022-10-18T02:45:18.298Z,11.56
2022-10-18T02:46:21.027Z,11.56
2022-10-18T02:47:22.939Z,11.57
2022-10-18T02:48:24.783Z,11.58
2022-10-18T02:49:26.614Z,11.60
2022-10-18T02:50:28.481Z,11.61
2022-10-18T02:51:30.325Z,11.62
2022-10-18T02:52:32.191Z,11.63
2022-10-18T02:53:33.955Z,11.63
2022-10-18T02:54:35.764Z,11.63
2022-10-18T02:55:37.498Z,11.63
2022-10-18T02:56:39.358Z,11.62
2022-10-18T02:57:41.111Z,11.59
2022-10-18T02:58:42.978Z,11.60
2022-10-18T02:59:44.787Z,11.56
2022-10-18T03:00:46.589Z,11.56
2022-10-18T03:01:48.661Z,11.56
2022-10-18T03:02:50.629Z,11.57
2022-10-18T03:03:52.390Z,11.56
2022-10-18T03:04:54.246Z,11.56
2022-10-18T03:05:56.034Z,11.55
2022-10-18T03:06:57.863Z,11.52
2022-10-18T03:07:59.800Z,11.51
2022-10-18T03:09:06.126Z,11.51
2022-10-18T03:10:08.093Z,11.52
2022-10-18T03:11:09.871Z,11.53
2022-10-18T03:12:11.727Z,11.48
2022-10-18T03:13:13.837Z,11.45
2022-10-18T03:14:15.754Z,11.47
2022-10-18T03:15:17.582Z,11.47
2022-10-18T03:16:19.373Z,11.46
2022-10-18T03:17:21.316Z,11.48
2022-10-18T03:18:23.201Z,11.49
2022-10-18T03:19:24.978Z,11.50
2022-10-18T03:20:26.789Z,11.49
2022-10-18T03:21:28.602Z,11.47
2022-10-18T03:22:30.423Z,11.48
2022-10-18T03:23:32.277Z,11.49
2022-10-18T03:24:34.044Z,11.51
2022-10-18T03:25:35.981Z,11.52
2022-10-18T03:26:37.824Z,11.55
2022-10-18T03:27:39.780Z,11.57
2022-10-18T03:28:41.605Z,11.57
2022-10-18T03:29:43.453Z,11.55
2022-10-18T03:30:45.316Z,11.57
2022-10-18T03:31:47.240Z,11.58
2022-10-18T03:32:48.996Z,11.56
2022-10-18T03:33:50.861Z,11.54
2022-10-18T03:34:52.639Z,11.51
2022-10-18T03:35:54.453Z,11.50
2022-10-18T03:37:00.941Z,11.50
2022-10-18T03:38:05.324Z,11.45
2022-10-18T03:39:07.216Z,11.43
2022-10-18T03:40:09.257Z,11.44
2022-10-18T03:41:11.035Z,11.42
2022-10-18T03:42:12.812Z,11.44
2022-10-18T03:43:14.624Z,11.44
2022-10-18T03:44:16.457Z,11.43
2022-10-18T03:45:18.215Z,11.43
2022-10-18T03:46:19.978Z,11.41
2022-10-18T03:47:21.803Z,11.41
2022-10-18T03:48:24.152Z,11.40
2022-10-18T03:49:26.055Z,11.41
2022-10-18T03:50:27.797Z,11.41
2022-10-18T03:51:29.591Z,11.32
2022-10-18T03:52:31.689Z,11.29
2022-10-18T03:53:34.024Z,11.32
2022-10-18T03:54:35.952Z,11.33
2022-10-18T03:55:38.242Z,11.34
2022-10-18T03:56:39.992Z,11.35
2022-10-18T03:57:41.794Z,11.37
2022-10-18T03:58:43.601Z,11.38
2022-10-18T03:59:45.488Z,11.37
2022-10-18T04:00:50.217Z,11.37
2022-10-18T04:01:52.027Z,11.38
2022-10-18T04:02:55.866Z,11.39
2022-10-18T04:03:58.031Z,11.40
2022-10-18T04:04:59.882Z,11.39
2022-10-18T04:06:03.662Z,11.39
2022-10-18T04:07:05.632Z,11.39
2022-10-18T04:08:07.386Z,11.39
2022-10-18T04:09:10.285Z,11.40
2022-10-18T04:10:12.233Z,11.41
2022-10-18T04:11:14.099Z,11.40
2022-10-18T04:12:15.818Z,11.40
2022-10-18T04:13:17.624Z,11.39
2022-10-18T04:14:21.582Z,11.38
2022-10-18T04:15:23.356Z,11.36
2022-10-18T04:16:25.257Z,11.36
2022-10-18T04:17:27.018Z,11.35
2022-10-18T04:18:28.983Z,11.33
2022-10-18T04:19:30.915Z,11.34
2022-10-18T04:20:32.702Z,11.34
2022-10-18T04:21:34.459Z,11.34
2022-10-18T04:22:36.146Z,11.34
2022-10-18T04:23:38.885Z,11.32
2022-10-18T04:24:41.125Z,11.30
2022-10-18T04:26:45.776Z,11.26
2022-10-18T04:27:47.986Z,11.27
2022-10-18T04:28:49.812Z,11.27
2022-10-18T04:29:51.659Z,11.27
2022-10-18T04:30:53.490Z,11.28
2022-10-18T04:31:55.234Z,11.29
2022-10-18T04:32:57.030Z,11.29
2022-10-18T04:33:58.821Z,11.28
2022-10-18T04:35:00.760Z,11.27
2022-10-18T04:36:02.573Z,11.27
2022-10-18T04:37:04.408Z,11.24
2022-10-18T04:38:06.261Z,11.22
2022-10-18T04:39:08.135Z,11.24
2022-10-18T04:40:10.093Z,11.23
2022-10-18T04:41:11.930Z,11.19
2022-10-18T04:42:13.731Z,11.16
2022-10-18T04:43:15.746Z,11.16
2022-10-18T04:44:17.499Z,11.15
2022-10-18T04:45:19.325Z,11.17
2022-10-18T04:46:21.119Z,11.19
2022-10-18T04:47:22.972Z,11.20
2022-10-18T04:48:24.775Z,11.24
2022-10-18T04:49:26.564Z,11.22
2022-10-18T04:50:28.491Z,11.26
2022-10-18T04:51:30.615Z,11.25
2022-10-18T04:52:32.557Z,11.24
2022-10-18T04:53:34.357Z,11.25
2022-10-18T04:54:36.679Z,11.23
2022-10-18T04:55:38.555Z,11.21
2022-10-18T04:56:40.330Z,11.22
2022-10-18T04:57:42.465Z,11.22
2022-10-18T04:58:44.398Z,11.24
2022-10-18T04:59:46.301Z,11.24
2022-10-18T05:00:48.239Z,11.26
2022-10-18T05:01:50.146Z,11.27
2022-10-18T05:02:56.612Z,11.24
2022-10-18T05:03:58.437Z,11.21
2022-10-18T05:05:00.291Z,11.22
2022-10-18T05:06:03.278Z,11.22
2022-10-18T05:07:06.914Z,11.21
2022-10-18T05:08:09.050Z,11.20
2022-10-18T05:09:10.921Z,11.21
2022-10-18T05:10:12.694Z,11.20
2022-10-18T05:11:14.784Z,11.19
2022-10-18T05:12:16.611Z,11.18
2022-10-18T05:13:18.367Z,11.18
2022-10-18T05:14:20.197Z,11.20
2022-10-18T05:15:22.002Z,11.18
2022-10-18T05:16:23.943Z,11.09
2022-10-18T05:17:25.733Z,11.09
2022-10-18T05:18:27.697Z,11.11
2022-10-18T05:19:29.520Z,11.13
2022-10-18T05:20:31.330Z,11.16
2022-10-18T05:21:33.598Z,11.18
2022-10-18T05:22:35.440Z,11.20
2022-10-18T05:23:37.252Z,11.23
2022-10-18T05:24:39.046Z,11.21
2022-10-18T05:25:41.605Z,11.21
2022-10-18T05:26:43.470Z,11.21
2022-10-18T05:27:45.249Z,11.23
2022-10-18T05:28:47.069Z,11.24
2022-10-18T05:29:48.955Z,11.26
2022-10-18T05:30:50.721Z,11.24
2022-10-18T05:31:52.602Z,11.21
2022-10-18T05:32:54.406Z,11.20
2022-10-18T05:33:56.225Z,11.19
2022-10-18T05:34:57.972Z,11.20
2022-10-18T05:35:59.887Z,11.20
2022-10-18T05:37:01.750Z,11.19
2022-10-18T05:38:06.942Z,11.22
2022-10-18T05:39:08.684Z,11.24
2022-10-18T05:40:10.785Z,11.24
2022-10-18T05:41:13.183Z,11.25
2022-10-18T05:42:15.073Z,11.24
2022-10-18T05:43:18.022Z,11.24
2022-10-18T05:44:19.948Z,11.25
2022-10-18T05:45:21.856Z,11.25
2022-10-18T05:46:23.645Z,11.27
2022-10-18T05:47:25.755Z,11.27
2022-10-18T05:48:27.548Z,11.24
2022-10-18T05:49:29.410Z,11.21
2022-10-18T05:50:35.424Z,11.16
2022-10-18T05:51:39.899Z,11.15
2022-10-18T05:52:41.765Z,11.17
2022-10-18T05:53:44.582Z,11.18
2022-10-18T05:54:46.428Z,11.21
2022-10-18T05:55:48.223Z,11.21
2022-10-18T05:56:50.061Z,11.26
2022-10-18T05:57:52.251Z,11.28
2022-10-18T05:58:54.124Z,11.29
2022-10-18T05:59:55.903Z,11.28
2022-10-18T06:01:01.792Z,11.27
2022-10-18T06:02:03.636Z,11.29
2022-10-18T06:03:05.568Z,11.29
2022-10-18T06:04:07.887Z,11.31
2022-10-18T06:05:09.734Z,11.35
2022-10-18T06:06:12.450Z,11.37
2022-10-18T06:07:14.233Z,11.39
2022-10-18T06:08:16.069Z,11.35
2022-10-18T06:09:18.001Z,11.36
2022-10-18T06:10:19.914Z,11.38
2022-10-18T06:11:21.742Z,11.37
2022-10-18T06:12:23.547Z,11.39
2022-10-18T06:13:25.462Z,11.40
2022-10-18T06:14:27.334Z,11.39
2022-10-18T06:15:29.135Z,11.41
2022-10-18T06:16:32.556Z,11.40
2022-10-18T06:17:35.109Z,11.40
2022-10-18T06:18:37.362Z,11.45
2022-10-18T06:19:39.137Z,11.47
2022-10-18T06:20:40.927Z,11.49
2022-10-18T06:21:43.732Z,11.51
2022-10-18T06:22:45.537Z,11.51
2022-10-18T06:23:54.740Z,11.51
2022-10-18T06:24:57.366Z,11.54
2022-10-18T06:26:03.399Z,11.57
2022-10-18T06:27:09.241Z,11.61
2022-10-18T06:28:12.177Z,11.62
2022-10-18T06:29:14.428Z,11.62
2022-10-18T06:30:16.552Z,11.64
2022-10-18T06:31:18.681Z,11.66
2022-10-18T06:32:20.477Z,11.66
2022-10-18T06:33:22.370Z,11.62
2022-10-18T06:34:24.254Z,11.60
2022-10-18T06:35:26.100Z,11.61
2022-10-18T06:36:28.084Z,11.59
2022-10-18T06:37:31.379Z,11.56
2022-10-18T06:38:33.757Z,11.57
2022-10-18T06:39:35.608Z,11.63
2022-10-18T06:40:38.387Z,11.60
2022-10-18T06:41:40.190Z,11.61
2022-10-18T06:42:43.598Z,11.61
2022-10-18T06:43:50.406Z,11.62
2022-10-18T06:44:52.218Z,11.65
2022-10-18T06:45:54.457Z,11.67
2022-10-18T06:46:56.357Z,11.68
2022-10-18T06:47:58.809Z,11.72
2022-10-18T06:49:00.625Z,11.73
2022-10-18T06:50:02.436Z,11.73
2022-10-18T06:51:06.413Z,11.72
2022-10-18T06:52:08.180Z,11.67
2022-10-18T06:53:10.194Z,11.66
2022-10-18T06:54:17.859Z,11.70
2022-10-18T06:55:20.419Z,11.75
2022-10-18T06:56:22.222Z,11.72
2022-10-18T06:57:24.062Z,11.72
2022-10-18T06:58:25.940Z,11.74
2022-10-18T06:59:31.098Z,11.77
2022-10-18T07:00:33.387Z,11.79
2022-10-18T07:01:35.242Z,11.80
2022-10-18T07:02:38.047Z,11.82
2022-10-18T07:03:40.331Z,11.86
2022-10-18T07:04:42.053Z,11.87
2022-10-18T07:05:44.007Z,11.90
2022-10-18T07:06:45.780Z,11.91
2022-10-18T07:07:47.591Z,11.93
2022-10-18T07:08:50.571Z,11.94
2022-10-18T07:09:52.340Z,11.96
2022-10-18T07:10:54.372Z,11.97
2022-10-18T07:11:56.103Z,11.98
2022-10-18T07:13:13.538Z,11.99
2022-10-18T07:14:19.678Z,12.00
2022-10-18T07:15:24.338Z,12.00
2022-10-18T07:16:26.146Z,11.98
2022-10-18T07:17:28.153Z,11.98
2022-10-18T07:18:30.031Z,11.99
2022-10-18T07:19:31.831Z,11.99
2022-10-18T07:20:33.836Z,11.99
2022-10-18T07:21:35.635Z,12.01
2022-10-18T07:22:38.425Z,12.03
2022-10-18T07:23:41.194Z,12.04
2022-10-18T07:24:43.883Z,12.08
2022-10-18T07:25:45.684Z,12.11
2022-10-18T07:26:47.559Z,12.13
2022-10-18T07:27:49.318Z,12.16
2022-10-18T07:28:54.482Z,12.17
2022-10-18T07:29:56.300Z,12.21
2022-10-18T07:31:01.302Z,12.26
2022-10-18T07:32:07.065Z,12.32
2022-10-18T07:33:08.878Z,12.39
2022-10-18T07:34:11.797Z,12.46
2022-10-18T07:35:13.704Z,12.51
2022-10-18T07:36:15.619Z,12.57
2022-10-18T07:37:17.428Z,12.61
2022-10-18T07:38:19.210Z,12.67
2022-10-18T07:39:21.102Z,12.72
2022-10-18T07:40:22.932Z,12.77
2022-10-18T07:41:24.788Z,12.82
2022-10-18T07:42:26.780Z,12.90
2022-10-18T07:43:29.404Z,12.95
2022-10-18T07:44:31.234Z,12.99
2022-10-18T07:45:33.020Z,13.02
2022-10-18T07:46:34.889Z,13.12
2022-10-18T07:47:37.191Z,13.29
2022-10-18T07:48:39.517Z,13.48
2022-10-18T07:49:41.362Z,13.62
2022-10-18T07:50:43.116Z,13.70
2022-10-18T07:51:44.976Z,13.76
2022-10-18T07:52:46.773Z,13.82
2022-10-18T07:53:48.676Z,13.90
2022-10-18T07:55:58.154Z,13.95
2022-10-18T07:56:59.922Z,13.97
2022-10-18T07:58:01.824Z,14.03
2022-10-18T07:59:03.669Z,14.07
2022-10-18T08:00:05.875Z,14.09
2022-10-18T08:01:08.658Z,14.09
2022-10-18T08:02:10.500Z,14.11
2022-10-18T08:03:12.331Z,14.10
2022-10-18T08:04:16.340Z,14.12
2022-10-18T08:05:18.678Z,14.15
2022-10-18T08:06:21.790Z,14.19
2022-10-18T08:07:23.620Z,14.25
2022-10-18T08:08:26.302Z,14.29
2022-10-18T08:09:28.066Z,14.29
2022-10-18T08:10:29.885Z,14.32
2022-10-18T08:11:31.758Z,14.36
2022-10-18T08:12:33.674Z,14.39
2022-10-18T08:13:35.757Z,14.43
2022-10-18T08:14:37.586Z,14.47
2022-10-18T08:15:39.344Z,14.49
2022-10-18T08:16:41.132Z,14.53
2022-10-18T08:17:44.616Z,14.54
2022-10-18T08:18:46.479Z,14.58
2022-10-18T08:19:58.494Z,14.62
2022-10-18T08:21:11.739Z,14.67
2022-10-18T08:22:13.516Z,14.72
2022-10-18T08:23:15.279Z,14.75
2022-10-18T08:24:17.105Z,14.75
2022-10-18T08:25:18.918Z,14.77
2022-10-18T08:26:22.514Z,14.82
2022-10-18T08:27:26.481Z,14.85
2022-10-18T08:28:28.318Z,14.85
2022-10-18T08:29:32.036Z,14.87
2022-10-18T08:30:35.305Z,14.95
2022-10-18T08:31:37.566Z,14.96
2022-10-18T08:32:39.386Z,14.99
2022-10-18T08:33:41.390Z,15.02
2022-10-18T08:34:43.253Z,15.07
2022-10-18T08:35:54.437Z,15.10
2022-10-18T08:36:56.178Z,15.16
2022-10-18T08:37:57.955Z,15.21
2022-10-18T08:38:59.778Z,15.24
2022-10-18T08:40:01.628Z,15.27
2022-10-18T08:41:15.357Z,15.31
2022-10-18T08:42:23.225Z,15.38
2022-10-18T08:43:43.680Z,15.42
2022-10-18T08:44:47.572Z,15.44
2022-10-18T08:45:50.220Z,15.53
2022-10-18T08:47:15.383Z,15.57
2022-10-18T08:48:22.213Z,15.63
2022-10-18T08:49:46.529Z,15.68
2022-10-18T08:50:50.181Z,15.76
2022-10-18T08:51:52.396Z,15.79
2022-10-18T08:52:54.158Z,15.84
2022-10-18T08:53:58.881Z,15.90
2022-10-18T08:55:02.772Z,15.92
2022-10-18T08:56:11.579Z,15.98
2022-10-18T08:57:15.119Z,16.05
2022-10-18T08:58:21.736Z,16.10
2022-10-18T08:59:25.536Z,16.15
2022-10-18T09:00:30.860Z,16.19
2022-10-18T09:01:35.776Z,16.26
2022-10-18T09:02:55.640Z,16.31
2022-10-18T09:04:03.531Z,16.38
2022-10-18T09:05:17.497Z,16.38
2022-10-18T09:06:37.614Z,16.46
2022-10-18T09:07:39.337Z,16.53
2022-10-18T09:08:50.416Z,16.59
2022-10-18T09:09:54.951Z,16.67
2022-10-18T09:11:05.798Z,16.74
2022-10-18T09:12:26.236Z,16.84
2022-10-18T09:13:33.819Z,16.91
2022-10-18T09:14:38.511Z,16.96
2022-10-18T09:15:57.386Z,17.00
2022-10-18T09:17:34.680Z,17.08
2022-10-18T09:18:42.092Z,17.15
2022-10-18T09:19:56.050Z,17.20
2022-10-18T09:20:59.035Z,17.29
2022-10-18T09:22:14.260Z,17.30
2022-10-18T09:23:21.291Z,17.37
2022-10-18T09:24:37.233Z,17.44
2022-10-18T09:25:45.599Z,17.51
2022-10-18T09:26:48.614Z,17.60
2022-10-18T09:27:52.878Z,17.64
2022-10-18T09:28:54.692Z,17.68
2022-10-18T09:30:08.259Z,17.74
2022-10-18T09:31:10.030Z,17.83
2022-10-18T09:32:21.691Z,17.91
2022-10-18T09:33:30.711Z,18.01
2022-10-18T09:34:37.938Z,18.05
2022-10-18T09:35:57.182Z,18.10
2022-10-18T09:36:59.410Z,18.18
2022-10-18T09:38:06.056Z,18.26
2022-10-18T09:39:16.024Z,18.33
2022-10-18T09:40:26.294Z,18.43
2022-10-18T09:41:31.003Z,18.44
2022-10-18T09:42:41.927Z,18.49
2022-10-18T09:44:02.287Z,18.53
2022-10-18T09:45:13.681Z,18.56
2022-10-18T09:46:17.362Z,18.65
2022-10-18T09:47:33.023Z,18.68
2022-10-18T09:48:39.238Z,18.73
2022-10-18T09:49:43.998Z,18.79
2022-10-18T09:50:49.172Z,18.84
2022-10-18T09:51:52.782Z,18.91
2022-10-18T09:53:09.904Z,18.96
2022-10-18T09:54:21.025Z,19.06
2022-10-18T09:55:24.971Z,19.13
2022-10-18T09:56:30.089Z,19.17
2022-10-18T09:57:32.066Z,19.22
2022-10-18T09:58:47.834Z,19.29
2022-10-18T09:59:50.668Z,19.38
2022-10-18T10:00:53.341Z,19.49
2022-10-18T10:01:55.265Z,19.54
2022-10-18T10:02:57.850Z,19.56
2022-10-18T10:03:59.735Z,19.60
2022-10-18T10:05:01.546Z,19.62
2022-10-18T10:06:12.179Z,19.64
2022-10-18T10:07:21.605Z,19.66
2022-10-18T10:08:32.348Z,19.72
2022-10-18T10:09:41.935Z,19.74
2022-10-18T10:10:47.457Z,19.86
2022-10-18T10:11:50.999Z,19.96
2022-10-18T10:13:06.446Z,20.04
2022-10-18T10:14:09.856Z,20.08
2022-10-18T10:15:23.088Z,20.15
2022-10-18T10:16:26.872Z,20.23
2022-10-18T10:17:31.564Z,20.25
2022-10-18T10:18:39.170Z,20.28
2022-10-18T10:19:56.835Z,20.30
2022-10-18T10:21:00.551Z,20.31
2022-10-18T10:22:04.288Z,20.37
2022-10-18T10:23:29.108Z,20.45
2022-10-18T10:24:49.819Z,20.56
2022-10-18T10:25:54.938Z,20.61
2022-10-18T10:27:00.736Z,20.66
2022-10-18T10:28:04.097Z,20.75
2022-10-18T10:29:43.508Z,20.84
2022-10-18T10:30:46.567Z,20.91
2022-10-18T10:32:01.764Z,20.94
2022-10-18T10:33:04.170Z,20.97
2022-10-18T10:34:14.823Z,20.97
2022-10-18T10:35:41.543Z,20.99
2022-10-18T10:36:53.853Z,20.98
2022-10-18T10:37:56.031Z,21.02
2022-10-18T10:39:04.233Z,21.08
2022-10-18T10:40:17.789Z,21.14
2022-10-18T10:41:21.887Z,21.21
2022-10-18T10:42:23.710Z,21.30
2022-10-18T10:43:39.777Z,21.35
2022-10-18T10:44:50.910Z,21.37
2022-10-18T10:46:13.300Z,21.41
2022-10-18T10:47:28.564Z,21.45
2022-10-18T10:48:34.638Z,21.50
2022-10-18T10:49:41.083Z,21.60
2022-10-18T10:50:54.342Z,21.67
2022-10-18T10:52:08.741Z,21.69
2022-10-18T10:53:26.856Z,21.72
2022-10-18T10:54:29.731Z,21.72
2022-10-18T10:55:35.722Z,21.75
2022-10-18T10:56:50.460Z,21.80
2022-10-18T10:57:52.943Z,21.86
2022-10-18T10:58:55.805Z,21.92
2022-10-18T11:00:00.122Z,21.93
2022-10-18T11:01:17.466Z,22.02
2022-10-18T11:02:24.065Z,22.07
2022-10-18T11:03:30.068Z,22.14
2022-10-18T11:04:32.301Z,22.23
2022-10-18T11:05:42.596Z,22.27
2022-10-18T11:07:04.661Z,22.35
2022-10-18T11:08:06.522Z,22.42
2022-10-18T11:09:18.403Z,22.48
2022-10-18T11:10:23.162Z,22.53
2022-10-18T11:11:35.514Z,22.57
2022-10-18T11:12:44.267Z,22.64
2022-10-18T11:13:57.043Z,22.69
2022-10-18T11:15:17.507Z,22.76
2022-10-18T11:16:26.684Z,22.80
2022-10-18T11:17:28.644Z,22.84
2022-10-18T11:18:32.707Z,22.88
2022-10-18T11:19:45.994Z,22.92
2022-10-18T11:20:49.851Z,22.95
2022-10-18T11:21:53.071Z,22.96
2022-10-18T11:23:02.665Z,23.03
2022-10-18T11:24:07.960Z,23.10
2022-10-18T11:25:13.397Z,23.12
2022-10-18T11:26:24.168Z,23.17
2022-10-18T11:27:32.896Z,23.20
2022-10-18T11:28:53.524Z,23.25
2022-10-18T11:30:14.768Z,23.29
2022-10-18T11:31:16.510Z,23.38
2022-10-18T11:32:38.480Z,23.38
2022-10-18T11:34:09.363Z,23.38
2022-10-18T11:35:35.867Z,23.43
2022-10-18T11:36:58.006Z,23.44
2022-10-18T11:38:33.202Z,23.48
2022-10-18T11:39:57.738Z,23.51
2022-10-18T11:41:05.428Z,23.58
2022-10-18T11:42:19.859Z,23.62
2022-10-18T11:44:00.689Z,23.65
2022-10-18T11:45:08.739Z,23.69
2022-10-18T11:46:28.308Z,23.74
2022-10-18T11:47:55.701Z,23.75
2022-10-18T11:49:18.044Z,23.76
2022-10-18T11:50:19.864Z,23.76
2022-10-18T11:51:44.522Z,23.79
2022-10-18T11:52:55.409Z,23.83
2022-10-18T11:54:00.109Z,23.84
2022-10-18T11:55:22.167Z,23.85
2022-10-18T11:56:27.081Z,23.89
2022-10-18T11:57:49.607Z,23.89
2022-10-18T11:58:54.353Z,23.94
2022-10-18T12:00:16.427Z,24.00
2022-10-18T12:01:33.243Z,24.00
2022-10-18T12:02:48.443Z,23.99
2022-10-18T12:03:56.377Z,23.95
2022-10-18T12:06:24.337Z,23.99
2022-10-18T12:07:32.498Z,23.99
2022-10-18T12:08:46.590Z,23.96
2022-10-18T12:09:49.925Z,23.99
2022-10-18T12:11:04.713Z,24.03
2022-10-18T12:12:28.442Z,24.04
2022-10-18T12:13:35.427Z,24.07
2022-10-18T12:14:40.953Z,24.07
2022-10-18T12:15:42.911Z,24.06
2022-10-18T12:16:51.584Z,24.04
2022-10-18T12:17:58.951Z,24.03
2022-10-18T12:19:03.224Z,24.02
2022-10-18T12:20:08.223Z,24.03
2022-10-18T12:21:13.079Z,24.05
2022-10-18T12:22:19.067Z,24.08
2022-10-18T12:23:26.444Z,24.06
2022-10-18T12:24:30.420Z,24.05
2022-10-18T12:25:37.090Z,24.08
2022-10-18T12:26:39.092Z,24.08
2022-10-18T12:27:45.658Z,24.08
2022-10-18T12:28:57.203Z,24.04
2022-10-18T12:30:15.027Z,24.02
2022-10-18T12:31:16.760Z,24.00
2022-10-18T12:32:30.327Z,23.95
2022-10-18T12:33:36.260Z,23.89
2022-10-18T12:34:47.097Z,23.88
2022-10-18T12:35:48.764Z,23.89
2022-10-18T12:36:53.406Z,23.92
2022-10-18T12:38:00.119Z,23.95
2022-10-18T12:39:03.536Z,23.94
2022-10-18T12:40:14.225Z,23.93
2022-10-18T12:41:37.140Z,23.96
2022-10-18T12:42:43.697Z,23.95
2022-10-18T12:43:51.247Z,23.94
2022-10-18T12:45:04.390Z,23.97
2022-10-18T12:46:13.029Z,23.99
2022-10-18T12:47:23.364Z,24.01
2022-10-18T12:48:28.390Z,24.03
2022-10-18T12:49:30.203Z,24.03
2022-10-18T12:50:31.987Z,24.03
2022-10-18T12:51:33.842Z,24.01
2022-10-18T12:52:37.500Z,23.95
2022-10-18T12:53:40.075Z,23.95
2022-10-18T12:55:00.491Z,23.96
2022-10-18T12:56:23.169Z,23.99
2022-10-18T12:57:46.957Z,23.99
2022-10-18T12:58:48.724Z,23.93
2022-10-18T12:59:50.652Z,23.91
2022-10-18T13:00:53.259Z,23.90
2022-10-18T13:01:55.147Z,23.89
2022-10-18T13:03:18.509Z,23.90
2022-10-18T13:04:29.713Z,23.92
2022-10-18T13:05:54.534Z,23.95
2022-10-18T13:07:16.297Z,23.96
2022-10-18T13:08:40.110Z,23.98
2022-10-18T13:09:44.891Z,23.96
2022-10-18T13:10:46.714Z,23.92
2022-10-18T13:11:48.999Z,23.89
2022-10-18T13:12:59.118Z,23.86
2022-10-18T13:14:00.953Z,23.86
2022-10-18T13:15:24.324Z,23.83
2022-10-18T13:16:38.988Z,23.87
2022-10-18T13:17:59.256Z,23.89
2022-10-18T13:19:09.334Z,23.87
2022-10-18T13:20:26.107Z,23.88
2022-10-18T13:21:40.977Z,23.86
2022-10-18T13:23:01.403Z,23.87
2022-10-18T13:24:05.991Z,23.86
2022-10-18T13:25:30.145Z,23.85
2022-10-18T13:26:42.410Z,23.84
2022-10-18T13:27:57.087Z,23.83
2022-10-18T13:29:14.271Z,23.88
2022-10-18T13:30:18.910Z,23.90
2022-10-18T13:31:29.257Z,23.94
2022-10-18T13:32:34.900Z,23.95
2022-10-18T13:33:41.709Z,23.98
2022-10-18T13:34:44.308Z,24.03
2022-10-18T13:35:55.724Z,24.01
2022-10-18T13:36:57.466Z,24.03
2022-10-18T13:38:00.276Z,24.04
2022-10-18T13:39:04.117Z,24.06
2022-10-18T13:40:25.126Z,24.08
2022-10-18T13:41:31.353Z,24.10
2022-10-18T13:42:36.287Z,24.15
2022-10-18T13:43:53.478Z,24.20
2022-10-18T13:44:55.356Z,24.25
2022-10-18T13:45:57.191Z,24.25
2022-10-18T13:46:59.063Z,24.28
2022-10-18T13:48:36.576Z,24.30
2022-10-18T13:49:44.204Z,24.39
2022-10-18T13:50:47.271Z,24.43
2022-10-18T13:52:07.178Z,24.49
2022-10-18T13:53:41.560Z,24.48
2022-10-18T13:54:51.349Z,24.54
2022-10-18T13:56:13.427Z,24.58
2022-10-18T13:57:30.206Z,24.61
2022-10-18T13:59:14.268Z,24.67
2022-10-18T14:00:35.202Z,24.63
2022-10-18T14:01:43.212Z,24.61
2022-10-18T14:02:57.745Z,24.61
2022-10-18T14:04:04.557Z,24.55
2022-10-18T14:05:24.525Z,24.51
2022-10-18T14:06:29.309Z,24.50
2022-10-18T14:07:32.414Z,24.52
2022-10-18T14:08:40.181Z,24.51
2022-10-18T14:09:50.993Z,24.53
2022-10-18T14:11:02.370Z,24.55
2022-10-18T14:12:23.636Z,24.54
2022-10-18T14:13:28.911Z,24.54
2022-10-18T14:14:35.491Z,24.58
2022-10-18T14:15:39.674Z,24.60